Time;durP1;ratioP1;P1;durP2;ratioP2;P2;SDS_P1;SDS_P2;PMS_P1;PMS_P2;Temp;Humidity;BMP_temperature;BMP_pressure;BME280_temperature;BME280_humidity;BME280_pressure;Samples;Min_cycle;Max_cycle;Signal;HPM_P1;HPM_P2
2021/03/20 00:02:20;;;;;;;18.85;13.90;;;5.10;79.20;;;;;;5051273;28;20045;-60
2021/03/20 00:04:46;;;;;;;18.25;13.73;;;5.10;79.50;;;;;;5034577;28;20080;-60
2021/03/20 00:07:11;;;;;;;16.92;12.50;;;5.10;79.70;;;;;;5033648;28;20087;-59
2021/03/20 00:09:37;;;;;;;24.42;14.93;;;5.10;79.50;;;;;;5035976;28;20473;-58
2021/03/20 00:12:04;;;;;;;20.23;13.15;;;5.20;79.60;;;;;;5047650;28;20044;-58
2021/03/20 00:14:30;;;;;;;19.98;14.18;;;5.20;79.50;;;;;;5033490;28;20036;-59
2021/03/20 00:16:55;;;;;;;19.30;13.05;;;5.20;79.50;;;;;;5033772;28;20030;-60
2021/03/20 00:19:21;;;;;;;19.45;13.23;;;5.20;79.50;;;;;;5042596;28;20020;-58
2021/03/20 00:21:48;;;;;;;17.65;12.60;;;5.20;79.30;;;;;;5053778;28;20033;-60
2021/03/20 00:24:14;;;;;;;18.75;12.50;;;5.30;79.40;;;;;;5053256;28;20510;-60
2021/03/20 00:26:40;;;;;;;18.67;12.68;;;5.30;79.50;;;;;;5053145;28;20096;-60
2021/03/20 00:29:06;;;;;;;19.38;12.63;;;5.30;79.50;;;;;;5053389;28;20025;-58
2021/03/20 00:31:32;;;;;;;19.60;13.57;;;5.30;79.60;;;;;;5044994;28;20032;-60
2021/03/20 00:33:58;;;;;;;21.65;12.75;;;5.40;79.70;;;;;;5033453;28;20026;-57
2021/03/20 00:36:24;;;;;;;21.98;14.43;;;5.40;79.80;;;;;;5033560;28;20017;-59
2021/03/20 00:38:50;;;;;;;22.50;14.07;;;5.40;79.60;;;;;;5033411;28;20037;-59
2021/03/20 00:41:15;;;;;;;20.23;13.70;;;5.40;79.60;;;;;;5033394;28;20473;-60
2021/03/20 00:43:41;;;;;;;20.42;13.50;;;5.50;79.50;;;;;;5033638;28;20393;-59
2021/03/20 00:46:09;;;;;;;19.90;12.32;;;5.50;79.30;;;;;;5033752;28;20036;-59
2021/03/20 00:48:37;;;;;;;18.30;13.10;;;5.50;79.10;;;;;;5033313;28;20056;-60
2021/03/20 00:51:04;;;;;;;22.02;13.43;;;5.50;79.10;;;;;;5033569;28;20028;-57
2021/03/20 00:53:30;;;;;;;17.67;11.55;;;5.50;79.20;;;;;;5041471;28;20162;-57
2021/03/20 00:55:57;;;;;;;19.40;12.98;;;5.50;79.10;;;;;;5052265;28;20100;-59
2021/03/20 00:58:32;;;;;;;20.70;13.07;;;5.50;79.20;;;;;;5053619;28;20103;-59
2021/03/20 01:01:16;;;;;;;23.73;14.13;;;5.60;79.10;;;;;;5052449;28;20107;-60
2021/03/20 01:03:43;;;;;;;14.35;10.55;;;5.60;78.90;;;;;;5053207;28;20048;-60
2021/03/20 01:06:16;;;;;;;16.88;12.15;;;5.60;78.80;;;;;;5037026;28;20025;-60
2021/03/20 01:08:42;;;;;;;18.55;12.48;;;5.60;78.90;;;;;;5036654;28;20080;-60
2021/03/20 01:11:10;;;;;;;18.38;11.40;;;5.60;79.00;;;;;;5036652;28;20026;-60
2021/03/20 01:13:36;;;;;;;16.77;11.38;;;5.60;79.00;;;;;;5036703;28;20029;-59
2021/03/20 01:16:02;;;;;;;17.00;10.15;;;5.60;78.90;;;;;;5053694;28;20115;-59
2021/03/20 01:18:28;;;;;;;15.07;10.00;;;5.60;78.90;;;;;;5056456;28;20444;-60
2021/03/20 01:20:53;;;;;;;14.98;9.90;;;5.60;78.80;;;;;;5056347;28;20053;-59
2021/03/20 01:23:19;;;;;;;17.55;9.77;;;5.70;78.80;;;;;;5056249;28;20115;-58
2021/03/20 01:25:45;;;;;;;14.38;8.75;;;5.70;78.70;;;;;;5039777;28;20112;-60
2021/03/20 01:28:11;;;;;;;16.33;9.48;;;5.70;78.60;;;;;;5036470;28;20458;-60
2021/03/20 01:30:40;;;;;;;13.80;8.27;;;5.70;78.50;;;;;;5038142;28;20108;-59
2021/03/20 01:33:06;;;;;;;15.77;9.75;;;5.70;78.60;;;;;;5056243;28;20025;-60
2021/03/20 01:35:32;;;;;;;11.65;8.10;;;5.70;78.60;;;;;;5041616;28;20080;-60
2021/03/20 01:37:59;;;;;;;14.75;7.57;;;5.70;78.50;;;;;;5036103;28;20064;-59
2021/03/20 01:40:29;;;;;;;13.45;8.32;;;5.70;78.60;;;;;;5035856;28;20541;-60
2021/03/20 01:42:54;;;;;;;12.05;7.55;;;5.70;78.40;;;;;;5036726;28;20362;-60
2021/03/20 01:45:30;;;;;;;13.93;7.57;;;5.70;78.60;;;;;;5036012;28;20041;-60
2021/03/20 01:48:09;;;;;;;14.15;7.88;;;5.70;78.40;;;;;;5035706;28;20040;-60
2021/03/20 01:50:40;;;;;;;14.35;8.07;;;5.70;78.60;;;;;;5036072;28;20104;-59
2021/03/20 01:53:21;;;;;;;15.35;7.85;;;5.60;78.50;;;;;;5040784;28;20104;-60
2021/03/20 01:55:47;;;;;;;13.45;7.78;;;5.60;78.40;;;;;;5054755;28;20065;-60
2021/03/20 01:58:13;;;;;;;11.63;8.35;;;5.60;78.50;;;;;;5055729;28;20107;-60
2021/03/20 02:00:44;;;;;;;10.77;8.00;;;5.60;78.40;;;;;;5053175;28;20044;-60
2021/03/20 02:03:17;;;;;;;14.52;8.05;;;5.60;78.50;;;;;;5036099;28;20051;-58
2021/03/20 02:05:43;;;;;;;13.60;8.15;;;5.60;78.60;;;;;;5035999;28;20044;-59
2021/03/20 02:08:12;;;;;;;12.30;8.15;;;5.70;78.50;;;;;;5035636;28;20377;-60
2021/03/20 02:10:40;;;;;;;11.85;7.80;;;5.70;78.60;;;;;;5035718;28;20512;-60
2021/03/20 02:13:29;;;;;;;11.10;7.47;;;5.70;78.40;;;;;;5055187;28;20032;-60
2021/03/20 02:16:06;;;;;;;9.70;7.55;;;5.70;78.40;;;;;;5038204;28;20075;-59
2021/03/20 02:18:58;;;;;;;9.00;6.93;;;5.70;78.30;;;;;;5035593;28;20026;-60
2021/03/20 02:21:30;;;;;;;9.60;6.28;;;5.60;78.10;;;;;;5036290;28;20041;-59
2021/03/20 02:24:29;;;;;;;12.07;7.35;;;5.60;78.20;;;;;;5035530;28;20037;-61
2021/03/20 02:27:28;;;;;;;9.00;6.97;;;5.60;77.90;;;;;;5035330;28;20361;-59
2021/03/20 02:30:12;;;;;;;9.10;6.40;;;5.50;77.90;;;;;;5035354;28;20057;-61
2021/03/20 02:33:22;;;;;;;10.63;7.45;;;5.50;77.90;;;;;;5034885;28;20032;-61
2021/03/20 02:36:04;;;;;;;9.98;6.22;;;5.40;78.10;;;;;;5038345;28;20040;-60
2021/03/20 02:39:09;;;;;;;12.23;7.28;;;5.40;78.30;;;;;;5054849;28;20036;-60
2021/03/20 02:41:56;;;;;;;11.35;6.80;;;5.40;78.20;;;;;;5054939;28;20433;-60
2021/03/20 02:44:25;;;;;;;11.23;7.18;;;5.40;78.20;;;;;;5053482;28;20021;-60
2021/03/20 02:47:00;;;;;;;9.02;6.55;;;5.30;78.30;;;;;;5054801;28;20389;-59
2021/03/20 02:50:03;;;;;;;11.35;7.03;;;5.40;78.40;;;;;;5054421;28;20037;-60
2021/03/20 02:52:40;;;;;;;7.63;6.78;;;5.30;78.20;;;;;;5053074;28;20512;-60
2021/03/20 02:55:17;;;;;;;9.82;6.70;;;5.30;78.30;;;;;;5050000;28;20036;-58
2021/03/20 02:58:02;;;;;;;9.88;6.80;;;5.30;78.30;;;;;;5034791;28;20388;-59
2021/03/20 03:00:44;;;;;;;15.23;8.63;;;5.30;78.50;;;;;;5036807;28;20066;-60
2021/03/20 03:03:13;;;;;;;10.88;8.05;;;5.30;78.30;;;;;;5034632;28;20069;-59
2021/03/20 03:05:55;;;;;;;13.68;8.98;;;5.30;78.20;;;;;;5034266;28;20025;-60
2021/03/20 03:08:24;;;;;;;12.10;9.60;;;5.30;78.30;;;;;;5034713;28;20021;-60
2021/03/20 03:10:56;;;;;;;13.70;9.95;;;5.30;78.50;;;;;;5034329;28;20032;-60
2021/03/20 03:13:29;;;;;;;15.73;9.90;;;5.30;78.30;;;;;;5034688;28;20446;-59
2021/03/20 03:16:20;;;;;;;17.85;11.35;;;5.30;78.50;;;;;;5046937;28;20412;-59
2021/03/20 03:18:50;;;;;;;16.25;11.00;;;5.30;78.30;;;;;;5029458;28;20477;-60
2021/03/20 03:21:18;;;;;;;15.60;11.93;;;5.30;78.50;;;;;;5039421;28;20400;-60
2021/03/20 03:23:44;;;;;;;17.13;11.68;;;5.20;78.40;;;;;;5033862;28;20026;-60
2021/03/20 03:26:15;;;;;;;18.05;12.35;;;5.30;78.50;;;;;;5034246;28;20036;-60
2021/03/20 03:28:47;;;;;;;21.73;13.53;;;5.30;78.50;;;;;;5034149;28;20026;-60
2021/03/20 03:31:37;;;;;;;17.02;11.90;;;5.30;78.60;;;;;;5042109;28;20413;-60
2021/03/20 03:34:08;;;;;;;16.23;11.68;;;5.30;78.80;;;;;;5042400;28;20025;-60
2021/03/20 03:36:42;;;;;;;17.93;12.97;;;5.30;78.50;;;;;;5034140;28;20022;-60
2021/03/20 03:39:16;;;;;;;18.05;12.10;;;5.30;78.50;;;;;;5034247;28;20018;-60
2021/03/20 03:41:42;;;;;;;19.65;13.38;;;5.30;78.50;;;;;;5046368;28;20112;-60
2021/03/20 03:44:08;;;;;;;20.15;14.38;;;5.30;78.50;;;;;;5034553;28;20524;-60
2021/03/20 03:46:37;;;;;;;24.33;15.50;;;5.30;78.70;;;;;;5034341;28;20453;-59
2021/03/20 03:49:07;;;;;;;22.67;14.93;;;5.30;78.80;;;;;;5033794;28;20036;-59
2021/03/20 03:51:33;;;;;;;25.25;14.95;;;5.30;78.80;;;;;;5032269;28;20038;-59
2021/03/20 03:54:00;;;;;;;23.35;14.05;;;5.30;78.80;;;;;;5034113;28;20070;-59
2021/03/20 03:57:01;;;;;;;23.77;14.13;;;5.30;78.80;;;;;;5046250;28;20029;-60
2021/03/20 04:00:10;;;;;;;23.77;13.88;;;5.30;78.50;;;;;;5053797;28;20079;-59
2021/03/20 04:02:44;;;;;;;22.95;12.45;;;5.30;78.60;;;;;;5029539;28;20057;-58
2021/03/20 04:05:23;;;;;;;21.23;13.02;;;5.30;78.70;;;;;;5034027;28;20022;-60
2021/03/20 04:08:05;;;;;;;20.63;12.43;;;5.30;78.50;;;;;;5033757;28;20021;-60
2021/03/20 04:10:44;;;;;;;21.33;12.40;;;5.30;78.70;;;;;;5033821;28;20079;-60
2021/03/20 04:13:42;;;;;;;17.17;12.07;;;5.30;78.60;;;;;;5033822;28;20029;-58
2021/03/20 04:16:26;;;;;;;21.60;12.73;;;5.30;78.40;;;;;;5033481;28;20447;-59
2021/03/20 04:19:16;;;;;;;19.50;12.20;;;5.30;78.50;;;;;;5033995;28;20034;-60
2021/03/20 04:21:49;;;;;;;19.73;12.55;;;5.30;78.50;;;;;;5033580;28;20030;-59
2021/03/20 04:24:30;;;;;;;21.67;12.25;;;5.30;78.60;;;;;;5052568;28;20029;-59
2021/03/20 04:27:05;;;;;;;19.13;12.85;;;5.40;78.30;;;;;;5053090;28;20035;-60
2021/03/20 04:29:52;;;;;;;25.98;13.90;;;5.30;78.50;;;;;;5053057;28;20476;-58
2021/03/20 04:32:24;;;;;;;20.35;12.73;;;5.30;78.40;;;;;;5033121;28;20034;-60
2021/03/20 04:35:08;;;;;;;25.90;13.27;;;5.30;78.50;;;;;;5044947;28;20102;-60
2021/03/20 04:37:38;;;;;;;23.25;13.15;;;5.30;78.50;;;;;;5048617;28;20080;-58
2021/03/20 04:40:08;;;;;;;22.42;13.40;;;5.30;78.60;;;;;;5056738;28;20029;-60
2021/03/20 04:42:37;;;;;;;21.65;12.35;;;5.40;78.70;;;;;;5044827;28;20048;-60
2021/03/20 04:45:32;;;;;;;18.23;13.07;;;5.40;78.70;;;;;;5036762;28;20477;-60
2021/03/20 04:48:16;;;;;;;22.05;12.93;;;5.40;78.50;;;;;;5036642;28;20040;-60
2021/03/20 04:50:44;;;;;;;19.70;12.65;;;5.40;78.50;;;;;;5036686;28;20022;-58
2021/03/20 04:53:13;;;;;;;18.45;13.18;;;5.40;78.60;;;;;;5036668;28;20013;-59
2021/03/20 04:55:39;;;;;;;22.30;13.32;;;5.40;78.50;;;;;;5036658;28;20434;-60
2021/03/20 04:58:30;;;;;;;21.33;13.70;;;5.40;78.60;;;;;;5036432;28;20026;-60
2021/03/20 05:01:17;;;;;;;23.20;14.02;;;5.40;78.50;;;;;;5046488;28;20043;-60
2021/03/20 05:03:50;;;;;;;23.88;13.35;;;5.40;78.40;;;;;;5056201;28;20497;-60
2021/03/20 05:06:22;;;;;;;20.85;12.95;;;5.40;78.80;;;;;;5056255;28;20427;-61
2021/03/20 05:09:08;;;;;;;20.65;14.40;;;5.40;78.70;;;;;;5056415;28;20082;-58
2021/03/20 05:11:38;;;;;;;26.80;15.00;;;5.50;78.70;;;;;;5055852;28;20036;-60
2021/03/20 05:14:34;;;;;;;18.58;12.75;;;5.50;78.80;;;;;;5056051;28;20025;-58
2021/03/20 05:17:03;;;;;;;21.10;13.02;;;5.50;78.60;;;;;;5056034;28;20100;-60
2021/03/20 05:19:29;;;;;;;18.85;13.13;;;5.50;78.80;;;;;;5056217;28;20052;-60
2021/03/20 05:21:56;;;;;;;23.33;12.57;;;5.50;78.60;;;;;;5055944;28;20166;-60
2021/03/20 05:24:31;;;;;;;18.40;13.35;;;5.50;78.40;;;;;;5056162;28;20459;-60
2021/03/20 05:26:58;;;;;;;18.70;13.68;;;5.50;78.50;;;;;;5056023;28;20025;-59
2021/03/20 05:29:25;;;;;;;22.48;13.18;;;5.60;78.50;;;;;;5055651;28;20033;-60
2021/03/20 05:31:51;;;;;;;21.27;12.00;;;5.60;78.60;;;;;;5037591;28;20033;-60
2021/03/20 05:34:24;;;;;;;22.50;13.20;;;5.60;78.70;;;;;;5048795;28;20104;-59
2021/03/20 05:36:51;;;;;;;22.50;13.07;;;5.50;78.40;;;;;;5055685;28;20025;-60
2021/03/20 05:39:17;;;;;;;18.50;12.07;;;5.50;78.30;;;;;;5044422;28;20151;-60
2021/03/20 05:41:53;;;;;;;20.45;13.95;;;5.50;78.30;;;;;;5050671;28;20109;-61
2021/03/20 05:44:27;;;;;;;19.65;13.05;;;5.50;78.50;;;;;;5055512;28;20057;-60
2021/03/20 05:46:59;;;;;;;23.73;13.15;;;5.50;78.60;;;;;;5054184;28;20056;-60
2021/03/20 05:49:24;;;;;;;17.75;12.32;;;5.50;78.70;;;;;;5053342;28;20017;-60
2021/03/20 05:51:56;;;;;;;19.50;12.90;;;5.60;78.80;;;;;;5053430;28;20101;-60
2021/03/20 05:54:44;;;;;;;19.35;13.43;;;5.60;78.70;;;;;;5053277;28;20021;-58
2021/03/20 05:57:25;;;;;;;20.75;12.05;;;5.60;78.70;;;;;;5053754;28;20033;-59
2021/03/20 06:00:03;;;;;;;17.05;11.82;;;5.60;78.50;;;;;;5050666;28;20082;-60
2021/03/20 06:02:48;;;;;;;17.33;11.40;;;5.70;78.90;;;;;;5035396;28;20397;-59
2021/03/20 06:05:31;;;;;;;17.83;12.15;;;5.70;78.80;;;;;;5035242;28;20036;-60
2021/03/20 06:08:22;;;;;;;21.13;13.50;;;5.70;78.50;;;;;;5035089;28;20028;-60
2021/03/20 06:10:57;;;;;;;18.17;11.85;;;5.70;78.40;;;;;;5035359;28;20116;-59
2021/03/20 06:13:39;;;;;;;19.25;12.00;;;5.70;78.40;;;;;;5035078;28;20026;-58
2021/03/20 06:16:13;;;;;;;17.65;13.50;;;5.80;78.60;;;;;;5035030;28;20026;-60
2021/03/20 06:18:45;;;;;;;22.13;13.88;;;5.80;78.80;;;;;;5035039;28;20024;-59
2021/03/20 06:21:31;;;;;;;21.67;12.85;;;5.90;79.00;;;;;;5034807;28;20508;-60
2021/03/20 06:24:26;;;;;;;19.08;12.88;;;5.90;78.70;;;;;;5033600;28;20040;-61
2021/03/20 06:26:55;;;;;;;17.85;12.77;;;6.00;78.80;;;;;;5034787;28;20108;-60
2021/03/20 06:29:29;;;;;;;24.10;13.35;;;6.00;78.60;;;;;;5034705;28;20022;-59
2021/03/20 06:32:03;;;;;;;18.90;12.10;;;6.00;78.70;;;;;;5035013;28;20030;-61
2021/03/20 06:34:39;;;;;;;17.27;11.23;;;6.10;78.70;;;;;;5049528;28;20496;-59
2021/03/20 06:37:20;;;;;;;19.55;11.05;;;6.10;78.50;;;;;;5054758;28;20381;-60
2021/03/20 06:40:04;;;;;;;14.18;9.43;;;6.20;78.60;;;;;;5054612;28;20408;-60
2021/03/20 06:42:36;;;;;;;15.07;9.82;;;6.20;78.20;;;;;;5040216;28;20041;-61
2021/03/20 06:45:13;;;;;;;18.30;10.57;;;6.20;78.40;;;;;;5034432;28;20064;-60
2021/03/20 06:47:40;;;;;;;15.18;9.77;;;6.20;78.20;;;;;;5032858;28;20036;-60
2021/03/20 06:50:19;;;;;;;14.75;9.52;;;6.30;78.60;;;;;;5032676;28;20021;-59
2021/03/20 06:52:51;;;;;;;15.13;8.85;;;6.30;78.00;;;;;;5045886;28;20030;-60
2021/03/20 06:55:25;;;;;;;12.60;8.68;;;6.30;78.20;;;;;;5032713;28;20068;-58
2021/03/20 06:57:51;;;;;;;16.90;8.23;;;6.30;77.70;;;;;;5032245;28;20556;-58
2021/03/20 07:00:27;;;;;;;12.75;7.32;;;6.30;77.90;;;;;;5032729;28;20036;-60
2021/03/20 07:03:35;;;;;;;11.38;6.90;;;6.30;77.60;;;;;;5033704;28;20053;-60
2021/03/20 07:06:30;;;;;;;11.82;7.00;;;6.40;77.70;;;;;;5052188;28;20033;-59
2021/03/20 07:09:02;;;;;;;10.48;6.47;;;6.40;77.80;;;;;;5053759;28;20455;-59
2021/03/20 07:11:41;;;;;;;11.88;6.88;;;6.40;77.80;;;;;;5054108;28;20021;-59
2021/03/20 07:14:13;;;;;;;10.85;6.68;;;6.40;77.80;;;;;;5053720;28;20053;-59
2021/03/20 07:16:50;;;;;;;;;;;6.40;77.50;;;;;;5053119;28;20028;-58
2021/03/20 07:19:16;;;;;;;9.60;6.05;;;6.30;77.40;;;;;;5040389;28;19916;-59
2021/03/20 07:22:03;;;;;;;10.75;6.20;;;6.30;77.40;;;;;;5040087;28;20029;-57
2021/03/20 07:24:52;;;;;;;12.30;6.78;;;6.30;77.10;;;;;;5041204;28;20037;-62
2021/03/20 07:27:21;;;;;;;11.80;6.53;;;6.30;77.30;;;;;;5035644;28;20375;-61
2021/03/20 07:29:52;;;;;;;10.95;7.00;;;6.20;77.40;;;;;;5038639;28;20033;-58
2021/03/20 07:32:30;;;;;;;12.55;7.05;;;6.20;77.70;;;;;;5041249;28;20104;-62
2021/03/20 07:35:12;;;;;;;11.38;6.70;;;6.20;77.50;;;;;;5051705;28;20048;-60
2021/03/20 07:37:38;;;;;;;11.65;7.03;;;6.20;77.70;;;;;;5033257;28;20022;-59
2021/03/20 07:40:32;;;;;;;10.15;7.20;;;6.20;77.90;;;;;;5036410;28;20032;-58
2021/03/20 07:43:18;;;;;;;10.77;6.90;;;6.20;77.80;;;;;;5052319;28;20128;-60
2021/03/20 07:45:47;;;;;;;11.32;7.10;;;6.20;77.60;;;;;;5052470;28;20021;-60
2021/03/20 07:48:25;;;;;;;8.90;6.18;;;6.20;77.70;;;;;;5052691;28;20033;-60
2021/03/20 07:51:11;;;;;;;11.60;7.22;;;6.20;77.50;;;;;;5050131;28;20025;-59
2021/03/20 07:53:49;;;;;;;8.38;6.18;;;6.20;77.40;;;;;;5052704;28;20033;-60
2021/03/20 07:56:36;;;;;;;7.57;5.43;;;6.20;77.40;;;;;;5052965;28;20021;-60
2021/03/20 07:59:23;;;;;;;10.77;6.07;;;6.20;77.20;;;;;;5041277;28;20025;-61
2021/03/20 08:01:52;;;;;;;10.13;6.55;;;6.10;77.00;;;;;;5052381;28;20411;-59
2021/03/20 08:04:18;;;;;;;7.72;5.82;;;6.00;77.20;;;;;;5053013;28;20029;-58
2021/03/20 08:06:49;;;;;;;9.82;6.43;;;6.00;77.60;;;;;;5052704;28;20477;-57
2021/03/20 08:09:18;;;;;;;;;;;6.00;77.80;;;;;;5055275;28;20036;-59
2021/03/20 08:11:50;;;;;;;6.15;5.10;;;6.00;77.70;;;;;;5056866;28;19999;-59
2021/03/20 08:14:26;;;;;;;7.45;5.70;;;6.00;78.10;;;;;;5056821;28;20029;-59
2021/03/20 08:16:52;;;;;;;10.05;6.65;;;6.00;77.50;;;;;;5056663;28;20017;-59
2021/03/20 08:19:19;;;;;;;9.40;6.68;;;6.00;77.70;;;;;;5043238;28;20029;-58
2021/03/20 08:22:23;;;;;;;10.13;6.32;;;6.00;77.50;;;;;;5039040;28;20033;-59
2021/03/20 08:25:18;;;;;;;9.00;6.20;;;6.00;77.50;;;;;;5042393;28;20032;-61
2021/03/20 08:28:10;;;;;;;8.05;6.38;;;6.00;77.50;;;;;;5027018;28;20417;-60
2021/03/20 08:30:56;;;;;;;9.68;6.50;;;6.00;78.00;;;;;;5044600;28;20456;-58
2021/03/20 08:33:31;;;;;;;8.20;6.00;;;6.00;78.10;;;;;;5043634;28;20017;-60
2021/03/20 08:36:21;;;;;;;7.95;5.82;;;6.00;78.10;;;;;;5042173;28;20499;-59
2021/03/20 08:39:20;;;;;;;7.20;5.95;;;6.10;78.20;;;;;;5044102;28;20315;-60
2021/03/20 08:41:54;;;;;;;8.07;5.55;;;6.10;78.20;;;;;;5029553;28;20036;-62
2021/03/20 08:45:06;;;;;;;7.43;5.60;;;6.20;78.20;;;;;;5043103;28;20017;-60
2021/03/20 08:47:53;;;;;;;7.28;5.55;;;6.20;77.90;;;;;;5014054;28;20053;-60
2021/03/20 08:50:32;;;;;;;5.80;4.63;;;6.30;77.90;;;;;;5045057;28;20060;-59
2021/03/20 08:53:06;;;;;;;6.30;5.13;;;6.30;77.80;;;;;;5038776;28;20037;-59
2021/03/20 08:55:47;;;;;;;5.82;4.45;;;6.30;77.90;;;;;;5049779;28;20017;-59
2021/03/20 08:58:34;;;;;;;5.72;4.47;;;6.30;78.00;;;;;;5045980;28;20148;-61
2021/03/20 09:01:17;;;;;;;5.82;4.88;;;6.30;78.00;;;;;;5040962;28;20496;-60
2021/03/20 09:03:51;;;;;;;8.75;5.10;;;6.20;78.10;;;;;;5047097;28;20021;-59
2021/03/20 09:06:31;;;;;;;5.93;4.40;;;6.20;77.90;;;;;;5042359;28;20033;-59
2021/03/20 09:09:03;;;;;;;7.38;4.57;;;6.20;77.90;;;;;;5041581;28;20028;-60
2021/03/20 09:11:45;;;;;;;7.43;4.38;;;6.20;77.90;;;;;;5040907;28;20022;-60
2021/03/20 09:14:39;;;;;;;6.05;4.20;;;6.10;77.50;;;;;;5045614;28;20473;-59
2021/03/20 09:17:32;;;;;;;4.78;3.85;;;6.10;78.00;;;;;;5050886;28;20017;-59
2021/03/20 09:20:16;;;;;;;5.25;4.05;;;6.10;78.30;;;;;;5038274;28;20384;-60
2021/03/20 09:22:46;;;;;;;5.63;4.38;;;6.10;78.40;;;;;;5044157;28;20025;-59
2021/03/20 09:25:23;;;;;;;6.15;4.90;;;6.10;78.40;;;;;;5039795;28;20532;-59
2021/03/20 09:28:06;;;;;;;10.05;5.78;;;6.10;78.40;;;;;;5042077;28;20025;-59
2021/03/20 09:30:36;;;;;;;6.35;5.70;;;6.00;78.20;;;;;;5045395;28;20025;-56
2021/03/20 09:33:13;;;;;;;5.03;4.43;;;6.00;78.50;;;;;;5042460;28;20025;-58
2021/03/20 09:35:45;;;;;;;6.43;5.45;;;6.00;78.60;;;;;;5045742;28;20045;-59
2021/03/20 09:38:12;;;;;;;6.75;5.80;;;6.00;78.40;;;;;;5048942;28;20108;-60
2021/03/20 09:40:49;;;;;;;7.18;5.95;;;5.90;78.30;;;;;;5046877;28;20099;-60
2021/03/20 09:43:33;;;;;;;6.03;5.30;;;5.90;78.60;;;;;;5047582;28;20070;-60
2021/03/20 09:46:37;;;;;;;7.03;5.43;;;5.90;78.40;;;;;;5037953;28;20032;-60
2021/03/20 09:49:22;;;;;;;6.35;5.32;;;5.90;78.50;;;;;;5042961;28;20488;-60
2021/03/20 09:51:48;;;;;;;6.55;5.20;;;5.80;78.40;;;;;;5049069;28;20030;-59
2021/03/20 09:54:26;;;;;;;6.45;5.70;;;5.80;78.50;;;;;;5049847;28;20028;-60
2021/03/20 09:56:56;;;;;;;6.95;6.20;;;5.80;78.60;;;;;;5037896;28;20033;-59
2021/03/20 09:59:28;;;;;;;5.72;4.95;;;5.70;78.60;;;;;;5068226;28;20020;-59
2021/03/20 10:01:55;;;;;;;6.22;4.90;;;5.70;78.70;;;;;;5053529;28;20060;-60
2021/03/20 10:04:35;;;;;;;6.25;4.95;;;5.70;78.90;;;;;;5050949;28;20116;-59
2021/03/20 10:07:12;;;;;;;5.25;4.32;;;5.70;79.00;;;;;;5039833;28;20026;-60
2021/03/20 10:09:59;;;;;;;5.10;4.28;;;5.70;78.90;;;;;;5036171;28;20491;-60
2021/03/20 10:12:47;;;;;;;5.45;4.40;;;5.60;79.00;;;;;;5042787;28;20025;-58
2021/03/20 10:15:22;;;;;;;4.85;4.32;;;5.60;78.70;;;;;;5045629;28;20488;-60
2021/03/20 10:18:03;;;;;;;4.63;4.20;;;5.50;78.90;;;;;;5045470;28;20137;-58
2021/03/20 10:20:40;;;;;;;5.50;4.43;;;5.50;78.90;;;;;;5044579;28;20029;-59
2021/03/20 10:23:21;;;;;;;5.82;4.15;;;5.40;79.10;;;;;;5042289;28;20053;-60
2021/03/20 10:25:54;;;;;;;4.30;3.67;;;5.40;79.30;;;;;;5041100;28;20043;-60
2021/03/20 10:28:28;;;;;;;4.22;3.58;;;5.30;79.30;;;;;;5042425;28;20037;-60
2021/03/20 10:31:03;;;;;;;4.78;3.58;;;5.30;79.30;;;;;;5049338;28;20074;-58
2021/03/20 10:33:31;;;;;;;4.18;3.40;;;5.30;79.60;;;;;;5043891;28;20021;-60
2021/03/20 10:36:31;;;;;;;5.30;3.80;;;5.30;79.70;;;;;;5033854;28;20017;-59
2021/03/20 10:38:57;;;;;;;4.68;3.70;;;5.20;79.50;;;;;;5007410;28;20061;-60
2021/03/20 10:41:32;;;;;;;4.45;3.90;;;5.20;79.80;;;;;;5049284;28;20076;-59
2021/03/20 10:44:30;;;;;;;6.75;4.43;;;5.20;80.20;;;;;;5044586;28;20063;-61
2021/03/20 10:47:06;;;;;;;5.82;4.28;;;5.20;80.10;;;;;;5045015;28;20033;-60
2021/03/20 10:49:38;;;;;;;4.78;4.10;;;5.20;80.20;;;;;;5051822;28;20029;-59
2021/03/20 10:52:10;;;;;;;5.05;4.10;;;5.20;80.40;;;;;;5040055;28;20071;-59
2021/03/20 10:54:52;;;;;;;4.97;3.78;;;5.20;80.30;;;;;;5044677;28;20083;-60
2021/03/20 10:57:20;;;;;;;;;;;5.20;80.30;;;;;;5040856;28;20024;-60
2021/03/20 10:59:48;;;;;;;4.63;4.00;;;5.10;80.20;;;;;;5041513;28;19909;-60
2021/03/20 11:02:28;;;;;;;4.05;3.65;;;5.10;80.30;;;;;;5046604;28;20117;-59
2021/03/20 11:05:31;;;;;;;4.35;3.75;;;5.10;80.20;;;;;;5047183;28;20060;-60
2021/03/20 11:08:03;;;;;;;4.90;3.83;;;5.10;79.90;;;;;;5044336;28;20073;-60
2021/03/20 11:10:35;;;;;;;4.90;4.07;;;5.10;80.20;;;;;;5040211;28;20599;-60
2021/03/20 11:13:05;;;;;;;5.53;4.22;;;5.10;80.10;;;;;;5040953;28;20025;-57
2021/03/20 11:15:33;;;;;;;4.85;3.83;;;5.10;80.20;;;;;;5038015;28;20026;-59
2021/03/20 11:18:01;;;;;;;4.30;3.85;;;5.20;80.00;;;;;;5048831;28;20048;-58
2021/03/20 11:20:37;;;;;;;4.35;3.70;;;5.20;79.90;;;;;;5038897;28;20105;-60
2021/03/20 11:23:06;;;;;;;4.25;3.60;;;5.20;79.70;;;;;;5036939;28;20112;-59
2021/03/20 11:25:41;;;;;;;4.70;3.80;;;5.10;79.50;;;;;;5040744;28;20041;-60
2021/03/20 11:28:06;;;;;;;4.57;3.75;;;5.10;79.30;;;;;;5035032;28;20025;-60
2021/03/20 11:30:45;;;;;;;4.80;3.60;;;5.00;79.40;;;;;;5047601;28;20551;-57
2021/03/20 11:33:17;;;;;;;4.82;3.78;;;5.00;79.70;;;;;;5046320;28;20021;-59
2021/03/20 11:35:52;;;;;;;5.00;3.70;;;5.00;80.10;;;;;;5042311;28;20021;-59
2021/03/20 11:38:20;;;;;;;3.72;3.30;;;5.10;80.20;;;;;;5037018;28;20100;-60
2021/03/20 11:41:02;;;;;;;4.97;3.67;;;5.00;80.00;;;;;;5039195;28;20040;-59
2021/03/20 11:43:29;;;;;;;3.92;3.25;;;5.10;80.20;;;;;;5040506;28;20049;-59
2021/03/20 11:46:08;;;;;;;4.07;3.28;;;5.10;80.10;;;;;;5041365;28;20159;-60
2021/03/20 11:48:41;;;;;;;3.80;3.38;;;5.10;79.70;;;;;;5046924;28;20102;-60
2021/03/20 11:51:13;;;;;;;4.78;3.90;;;5.10;79.80;;;;;;5038891;28;20742;-59
2021/03/20 11:53:48;;;;;;;4.25;3.50;;;5.10;80.00;;;;;;5036329;28;20033;-58
2021/03/20 11:56:16;;;;;;;4.25;3.33;;;5.10;80.00;;;;;;5037207;28;20022;-59
2021/03/20 11:58:50;;;;;;;4.90;3.80;;;5.10;80.00;;;;;;5035963;28;20066;-59
2021/03/20 12:01:31;;;;;;;3.90;3.38;;;5.10;80.00;;;;;;5038250;28;20056;-60
2021/03/20 12:04:15;;;;;;;4.82;3.78;;;5.10;80.10;;;;;;5041026;28;20461;-58
2021/03/20 12:06:41;;;;;;;4.50;3.42;;;5.10;80.20;;;;;;5037698;28;20051;-58
2021/03/20 12:09:28;;;;;;;5.07;4.00;;;5.20;80.30;;;;;;5042786;28;20025;-60
2021/03/20 12:11:55;;;;;;;5.72;4.00;;;5.20;80.40;;;;;;5040508;28;20072;-58
2021/03/20 12:14:43;;;;;;;5.13;3.92;;;5.20;80.50;;;;;;5042903;28;20025;-59
2021/03/20 12:17:08;;;;;;;7.85;5.38;;;5.30;80.50;;;;;;5039050;28;20522;-59
2021/03/20 12:20:09;;;;;;;6.15;4.43;;;5.30;80.40;;;;;;5035709;28;20028;-60
2021/03/20 12:22:36;;;;;;;5.15;4.25;;;5.40;80.00;;;;;;5041957;28;20052;-60
2021/03/20 12:25:24;;;;;;;3.88;3.53;;;5.40;79.90;;;;;;5037645;28;20030;-59
2021/03/20 12:28:10;;;;;;;5.15;3.58;;;5.40;80.00;;;;;;5034656;28;20037;-58
2021/03/20 12:30:36;;;;;;;6.75;4.20;;;5.50;80.00;;;;;;5040216;28;20029;-60
2021/03/20 12:33:11;;;;;;;5.85;4.75;;;5.50;79.90;;;;;;5035355;28;20492;-60
2021/03/20 12:35:49;;;;;;;5.95;3.88;;;5.60;79.90;;;;;;5039460;28;20025;-60
2021/03/20 12:38:24;;;;;;;4.88;4.10;;;5.60;79.70;;;;;;5037216;28;20044;-60
2021/03/20 12:41:00;;;;;;;5.45;3.67;;;5.60;79.70;;;;;;5035140;28;20021;-60
2021/03/20 12:43:33;;;;;;;4.70;3.97;;;5.60;79.80;;;;;;5036627;28;20033;-59
2021/03/20 12:46:05;;;;;;;6.28;4.50;;;5.60;80.00;;;;;;5036603;28;20025;-60
2021/03/20 12:48:33;;;;;;;5.47;3.92;;;5.60;80.00;;;;;;5035055;28;20045;-60
2021/03/20 12:51:17;;;;;;;4.72;4.03;;;5.60;80.10;;;;;;5034594;28;20033;-57
2021/03/20 12:53:43;;;;;;;5.90;4.60;;;5.60;80.00;;;;;;5040671;28;20075;-60
2021/03/20 12:56:08;;;;;;;5.30;4.47;;;5.60;80.00;;;;;;5030667;28;20108;-59
2021/03/20 12:58:34;;;;;;;4.75;3.90;;;5.70;80.10;;;;;;5033998;28;20524;-57
2021/03/20 13:01:00;;;;;;;6.32;4.57;;;5.70;80.40;;;;;;5040005;28;20045;-59
2021/03/20 13:03:29;;;;;;;5.22;4.30;;;5.70;80.20;;;;;;5035429;28;20120;-60
2021/03/20 13:05:55;;;;;;;5.72;4.72;;;5.70;80.20;;;;;;5035252;28;20026;-60
2021/03/20 13:08:21;;;;;;;4.50;3.95;;;5.70;80.30;;;;;;5041517;28;20029;-59
2021/03/20 13:10:46;;;;;;;6.22;4.43;;;5.80;80.30;;;;;;5049591;28;20060;-60
2021/03/20 13:13:12;;;;;;;5.72;4.45;;;5.80;80.40;;;;;;5044730;28;20025;-60
2021/03/20 13:15:38;;;;;;;5.28;4.40;;;5.80;80.50;;;;;;5041312;28;20037;-60
2021/03/20 13:18:04;;;;;;;6.53;4.70;;;5.80;80.40;;;;;;5046924;28;20093;-60
2021/03/20 13:20:29;;;;;;;6.30;4.68;;;5.90;80.40;;;;;;5048467;28;20036;-58
2021/03/20 13:22:55;;;;;;;6.40;4.38;;;5.90;80.40;;;;;;5042772;28;20031;-58
2021/03/20 13:25:36;;;;;;;6.18;4.75;;;5.90;80.30;;;;;;5042395;28;20473;-59
2021/03/20 13:28:06;;;;;;;6.80;4.87;;;6.00;80.20;;;;;;5038779;28;20032;-59
2021/03/20 13:30:37;;;;;;;5.55;4.55;;;6.00;79.80;;;;;;5043155;28;20103;-59
2021/03/20 13:33:04;;;;;;;5.90;4.80;;;6.00;79.80;;;;;;5044135;28;20041;-58